Time;durP1;ratioP1;P1;durP2;ratioP2;P2;SDS_P1;SDS_P2;PMS_P1;PMS_P2;Temp;Humidity;BMP_temperature;BMP_pressure;BME280_temperature;BME280_humidity;BME280_pressure;Samples;Min_cycle;Max_cycle;Signal;HPM_P1;HPM_P2
2021/04/14 04:02:05;;;;;;;6.70;3.58;;;1.70;99.90;;;;;;5164549;23;20264;-72
2021/04/14 04:04:31;;;;;;;5.00;3.45;;;1.70;99.90;;;;;;4916913;29;20214;-72
2021/04/14 04:06:57;;;;;;;6.45;2.90;;;1.70;99.90;;;;;;4917693;29;20221;-72
2021/04/14 04:09:23;;;;;;;5.85;4.35;;;1.70;99.90;;;;;;4917594;29;20215;-72
2021/04/14 04:11:50;;;;;;;8.65;3.78;;;1.60;99.90;;;;;;4903563;29;20589;-72
2021/04/14 04:14:16;;;;;;;8.75;3.47;;;1.60;99.90;;;;;;4898811;29;20734;-73
2021/04/14 04:16:42;;;;;;;13.65;3.65;;;1.60;99.90;;;;;;4898047;29;20647;-73
2021/04/14 04:19:09;;;;;;;3.33;3.00;;;1.60;99.90;;;;;;4898987;29;20223;-73
2021/04/14 04:21:35;;;;;;;4.57;4.18;;;1.60;99.90;;;;;;4897626;29;20715;-73
2021/04/14 04:24:02;;;;;;;6.35;3.92;;;1.60;99.90;;;;;;4898218;29;20215;-72
2021/04/14 04:26:28;;;;;;;3.35;2.90;;;1.60;99.90;;;;;;4897347;29;20207;-73
2021/04/14 04:28:54;;;;;;;7.40;3.60;;;1.60;99.90;;;;;;4898381;29;20234;-74
2021/04/14 04:31:20;;;;;;;5.30;3.40;;;1.60;99.90;;;;;;4896743;29;20290;-72
2021/04/14 04:33:47;;;;;;;6.40;3.92;;;1.60;99.90;;;;;;4897075;29;20238;-73
2021/04/14 04:36:14;;;;;;;8.82;4.15;;;1.60;99.90;;;;;;4897430;29;20213;-73
2021/04/14 04:38:40;;;;;;;7.85;3.67;;;1.60;99.90;;;;;;4898186;29;20305;-73
2021/04/14 04:41:06;;;;;;;6.88;3.38;;;1.60;99.90;;;;;;4896532;29;20224;-72
2021/04/14 04:43:33;;;;;;;9.18;3.17;;;1.60;99.90;;;;;;4896964;29;20215;-72
2021/04/14 04:45:59;;;;;;;7.40;4.15;;;1.70;99.90;;;;;;4896405;29;20664;-72
2021/04/14 04:48:25;;;;;;;9.00;3.95;;;1.70;99.90;;;;;;4882936;29;20693;-73
2021/04/14 04:50:52;;;;;;;6.35;3.70;;;1.70;99.90;;;;;;4885134;29;20585;-73
2021/04/14 04:53:22;;;;;;;6.13;4.20;;;1.80;99.90;;;;;;4896328;29;20677;-71
2021/04/14 04:55:49;;;;;;;11.00;5.00;;;2.00;99.90;;;;;;4896687;29;20219;-70
2021/04/14 04:58:16;;;;;;;5.25;4.75;;;2.20;99.90;;;;;;4897204;29;20222;-70
2021/04/14 05:00:43;;;;;;;6.93;4.00;;;2.30;99.90;;;;;;4896545;29;20235;-70
2021/04/14 05:03:12;;;;;;;8.57;3.90;;;2.40;99.90;;;;;;4896874;29;20199;-70
2021/04/14 05:05:39;;;;;;;5.75;4.10;;;2.40;99.90;;;;;;4896582;29;20604;-70
2021/04/14 05:08:06;;;;;;;6.57;3.50;;;2.50;99.90;;;;;;4897967;29;20207;-71
2021/04/14 05:10:33;;;;;;;4.45;3.60;;;2.60;99.90;;;;;;4900190;29;20227;-72
2021/04/14 05:13:00;;;;;;;5.20;3.72;;;2.80;99.90;;;;;;4900424;29;20226;-72
2021/04/14 05:15:29;;;;;;;5.55;3.78;;;2.90;99.90;;;;;;4899749;29;20211;-72
2021/04/14 05:17:55;;;;;;;4.40;3.97;;;3.00;99.90;;;;;;4900918;29;20215;-72
2021/04/14 05:20:22;;;;;;;3.58;3.13;;;3.00;99.90;;;;;;4899629;29;20223;-72
2021/04/14 05:22:48;;;;;;;5.20;3.40;;;3.00;99.90;;;;;;4899983;29;20683;-72
2021/04/14 05:25:17;;;;;;;3.80;3.00;;;3.00;99.90;;;;;;4899671;29;20215;-72
2021/04/14 05:27:44;;;;;;;6.43;3.55;;;3.10;99.90;;;;;;4900159;29;20360;-72
2021/04/14 05:30:13;;;;;;;4.32;3.35;;;3.10;99.90;;;;;;4900012;29;20211;-72
2021/04/14 05:32:40;;;;;;;6.72;3.33;;;3.20;99.90;;;;;;4899959;29;20251;-72
2021/04/14 05:35:08;;;;;;;4.30;3.92;;;3.20;99.90;;;;;;4899946;29;20211;-72
2021/04/14 05:37:34;;;;;;;6.43;4.32;;;3.30;99.90;;;;;;4899712;29;20612;-72
2021/04/14 05:40:01;;;;;;;4.25;3.92;;;3.50;99.90;;;;;;4898910;29;20512;-72
2021/04/14 05:42:27;;;;;;;5.10;2.75;;;3.60;99.90;;;;;;4899628;29;20305;-72
2021/04/14 05:44:54;;;;;;;4.00;3.30;;;3.80;99.90;;;;;;4900462;29;20210;-72
2021/04/14 05:47:20;;;;;;;4.72;3.13;;;4.10;99.90;;;;;;4901891;29;20211;-72
2021/04/14 05:49:46;;;;;;;3.53;2.15;;;4.30;99.90;;;;;;4896056;29;20226;-73
2021/04/14 05:52:13;;;;;;;2.53;2.33;;;4.60;99.90;;;;;;4901789;29;20230;-73
2021/04/14 05:54:39;;;;;;;2.50;2.30;;;4.90;99.90;;;;;;4899676;29;20215;-71
2021/04/14 05:57:05;;;;;;;8.35;2.47;;;5.10;99.90;;;;;;4899630;29;20211;-71
2021/04/14 05:59:32;;;;;;;5.68;2.65;;;5.20;99.90;;;;;;4899985;29;20211;-71
2021/04/14 06:01:59;;;;;;;7.45;2.55;;;5.30;99.90;;;;;;4900883;29;20228;-71
2021/04/14 06:04:25;;;;;;;7.00;2.53;;;5.50;99.90;;;;;;4901041;29;20211;-71
2021/04/14 06:06:51;;;;;;;8.07;3.00;;;5.70;99.90;;;;;;4901437;29;20215;-73
2021/04/14 06:09:17;;;;;;;2.63;2.42;;;5.60;99.90;;;;;;4891578;29;20231;-74
2021/04/14 06:11:43;;;;;;;2.20;2.10;;;5.50;99.90;;;;;;4897850;29;20279;-74
2021/04/14 06:14:10;;;;;;;2.60;2.35;;;5.40;99.90;;;;;;4901055;29;20207;-74
2021/04/14 06:16:36;;;;;;;4.80;2.40;;;5.30;99.90;;;;;;4899361;29;20214;-73
2021/04/14 06:19:03;;;;;;;2.58;2.38;;;5.30;99.90;;;;;;4897782;29;20556;-74
2021/04/14 06:21:30;;;;;;;5.07;3.40;;;5.20;99.90;;;;;;4897832;29;20223;-74
2021/04/14 06:23:58;;;;;;;4.05;2.70;;;5.20;99.90;;;;;;4897978;29;20578;-74
2021/04/14 06:26:30;;;;;;;4.72;2.70;;;5.20;99.90;;;;;;4896981;29;20254;-73
2021/04/14 06:28:57;;;;;;;10.27;2.88;;;5.20;99.90;;;;;;4898495;29;20235;-74
2021/04/14 06:31:25;;;;;;;6.60;2.25;;;5.20;99.90;;;;;;4899398;29;20634;-74
2021/04/14 06:33:53;;;;;;;5.53;2.30;;;5.40;99.90;;;;;;4901301;29;20243;-73
2021/04/14 06:36:20;;;;;;;2.03;1.85;;;5.60;99.90;;;;;;4886383;29;20204;-73
2021/04/14 06:38:48;;;;;;;2.70;2.00;;;5.80;99.90;;;;;;4897613;29;20325;-73
2021/04/14 06:41:48;;;;;;;1.67;1.58;;;6.00;99.90;;;;;;4898935;29;20246;-73
2021/04/14 06:44:22;;;;;;;3.50;2.10;;;6.00;99.90;;;;;;4898561;29;20218;-74
2021/04/14 06:46:50;;;;;;;9.23;3.95;;;6.10;99.90;;;;;;4898535;29;20222;-73
2021/04/14 06:49:21;;;;;;;6.40;2.60;;;6.20;99.90;;;;;;4886168;29;20239;-73
2021/04/14 06:51:53;;;;;;;1.83;1.67;;;6.30;99.90;;;;;;4893727;29;20219;-73
2021/04/14 06:54:30;;;;;;;3.33;2.28;;;6.40;99.90;;;;;;4890970;29;20574;-74
2021/04/14 06:57:00;;;;;;;2.70;1.85;;;6.40;99.90;;;;;;4897270;29;20199;-74
2021/04/14 06:59:30;;;;;;;3.90;2.00;;;6.20;99.90;;;;;;4898370;29;20203;-73
2021/04/14 07:02:01;;;;;;;2.25;2.15;;;6.20;99.90;;;;;;4898225;29;20238;-71
2021/04/14 07:04:32;;;;;;;7.80;2.63;;;6.20;99.90;;;;;;4893757;29;20240;-71
2021/04/14 07:07:02;;;;;;;3.70;2.85;;;6.10;99.90;;;;;;4890952;29;20207;-71
2021/04/14 07:09:34;;;;;;;1.95;1.67;;;6.00;99.90;;;;;;4898248;29;20219;-70
2021/04/14 07:12:00;;;;;;;3.33;2.50;;;5.90;99.90;;;;;;4897853;29;20251;-71
2021/04/14 07:14:27;;;;;;;5.10;2.53;;;5.80;99.90;;;;;;4896181;29;20219;-71
2021/04/14 07:17:06;;;;;;;3.53;1.95;;;5.80;99.90;;;;;;4897483;29;20698;-70
2021/04/14 07:20:01;;;;;;;1.98;1.88;;;5.70;99.90;;;;;;4897081;29;20547;-70
2021/04/14 07:22:40;;;;;;;2.63;2.42;;;5.70;99.90;;;;;;4897781;29;20223;-70
2021/04/14 07:25:13;;;;;;;3.03;2.10;;;5.70;99.90;;;;;;4898323;29;20282;-71
2021/04/14 07:27:52;;;;;;;3.55;2.10;;;5.60;99.90;;;;;;4893764;29;20199;-70
2021/04/14 07:30:24;;;;;;;2.30;2.10;;;5.70;99.90;;;;;;4898066;29;20215;-70
2021/04/14 07:33:01;;;;;;;5.50;2.15;;;5.70;99.90;;;;;;4897485;29;20282;-70
2021/04/14 07:35:33;;;;;;;8.77;2.58;;;5.70;99.90;;;;;;4897329;29;20210;-70
2021/04/14 07:38:06;;;;;;;7.70;2.42;;;5.70;99.90;;;;;;4898112;29;20613;-70
2021/04/14 07:40:40;;;;;;;2.17;2.00;;;5.70;99.90;;;;;;4897652;29;20219;-71
2021/04/14 07:43:13;;;;;;;4.75;2.33;;;5.80;99.90;;;;;;4896203;29;20286;-70
2021/04/14 07:45:40;;;;;;;2.42;2.15;;;5.70;99.90;;;;;;4886824;29;20212;-69
2021/04/14 07:48:09;;;;;;;3.70;2.10;;;5.90;99.90;;;;;;4879501;29;20218;-68
2021/04/14 07:50:38;;;;;;;2.00;1.90;;;5.90;99.90;;;;;;4896872;29;20234;-70
2021/04/14 07:53:17;;;;;;;1.85;1.75;;;5.90;99.90;;;;;;4897304;29;20219;-69
2021/04/14 07:55:43;;;;;;;5.68;2.00;;;5.90;99.90;;;;;;4897921;29;20658;-69
2021/04/14 07:58:14;;;;;;;1.58;1.52;;;6.00;99.90;;;;;;4897466;29;20203;-73
2021/04/14 08:00:42;;;;;;;2.35;1.73;;;6.10;99.90;;;;;;4897580;29;20246;-73
2021/04/14 08:03:11;;;;;;;2.25;2.05;;;6.30;99.90;;;;;;4897469;29;20244;-73
2021/04/14 08:05:37;;;;;;;3.90;1.92;;;6.50;99.90;;;;;;4897384;29;20215;-73
2021/04/14 08:08:15;;;;;;;2.67;1.50;;;6.60;99.90;;;;;;4897737;29;20207;-73
2021/04/14 08:10:55;;;;;;;6.38;1.85;;;6.60;99.90;;;;;;4897805;29;20239;-73
2021/04/14 08:13:24;;;;;;;2.85;1.27;;;6.60;99.90;;;;;;4897518;29;20262;-74
2021/04/14 08:15:50;;;;;;;1.45;1.35;;;6.70;99.90;;;;;;4897736;29;20621;-72
2021/04/14 08:18:25;;;;;;;2.83;2.53;;;6.80;99.90;;;;;;4897825;29;20211;-73
2021/04/14 08:21:10;;;;;;;2.58;2.03;;;6.90;99.90;;;;;;4897644;29;20305;-72
2021/04/14 08:23:39;;;;;;;4.43;1.92;;;7.10;99.90;;;;;;4897403;29;20274;-73
2021/04/14 08:26:15;;;;;;;3.03;1.95;;;7.20;99.90;;;;;;4897142;29;20230;-74
2021/04/14 08:28:45;;;;;;;2.00;1.80;;;7.20;99.90;;;;;;4898641;29;20279;-74
2021/04/14 08:31:19;;;;;;;2.60;2.38;;;7.30;99.90;;;;;;4897293;29;20234;-73
2021/04/14 08:33:45;;;;;;;6.30;3.33;;;7.40;99.90;;;;;;4896764;29;20226;-73
2021/04/14 08:36:17;;;;;;;2.65;2.28;;;7.50;99.90;;;;;;4897261;29;20669;-73
2021/04/14 08:38:45;;;;;;;3.70;2.40;;;7.80;99.90;;;;;;4897672;29;20211;-73
2021/04/14 08:41:22;;;;;;;2.50;2.17;;;7.80;99.90;;;;;;4896924;29;20235;-73
2021/04/14 08:43:52;;;;;;;2.60;2.40;;;7.70;99.90;;;;;;4896473;29;20188;-73
2021/04/14 08:46:26;;;;;;;4.70;1.77;;;7.60;99.90;;;;;;4897394;29;20218;-73
2021/04/14 08:48:56;;;;;;;1.70;1.60;;;7.60;99.90;;;;;;4896950;29;20218;-71
2021/04/14 08:51:24;;;;;;;2.10;2.00;;;7.50;99.90;;;;;;4896997;29;20233;-72
2021/04/14 08:53:55;;;;;;;4.53;2.00;;;7.70;99.90;;;;;;4896771;29;20226;-72
2021/04/14 08:56:24;;;;;;;2.15;1.85;;;7.90;99.90;;;;;;4897359;29;20559;-73
2021/04/14 08:58:50;;;;;;;3.90;1.90;;;8.20;99.90;;;;;;4897457;29;20668;-73
2021/04/14 09:01:17;;;;;;;3.90;1.95;;;8.20;99.90;;;;;;4897965;29;20353;-74
2021/04/14 09:03:45;;;;;;;3.92;2.10;;;8.30;99.90;;;;;;4896772;29;20644;-73
2021/04/14 09:06:13;;;;;;;1.88;1.67;;;8.40;99.90;;;;;;4897629;29;20676;-73
2021/04/14 09:08:43;;;;;;;8.20;1.58;;;8.40;99.90;;;;;;4897472;29;20212;-72
2021/04/14 09:11:19;;;;;;;3.15;1.48;;;8.60;99.90;;;;;;4897285;29;20235;-72
2021/04/14 09:13:54;;;;;;;3.55;2.10;;;8.50;99.90;;;;;;4878555;29;20231;-72
2021/04/14 09:16:33;;;;;;;4.25;1.85;;;8.40;99.90;;;;;;4878775;29;20219;-72
2021/04/14 09:19:11;;;;;;;4.93;2.15;;;8.30;99.90;;;;;;4878495;29;20207;-72
2021/04/14 09:21:59;;;;;;;7.55;2.78;;;8.20;99.90;;;;;;4882069;29;20514;-72
2021/04/14 09:24:37;;;;;;;2.20;1.83;;;8.20;99.90;;;;;;4894088;29;20267;-73
2021/04/14 09:27:08;;;;;;;2.80;2.08;;;8.10;99.90;;;;;;4897072;29;20328;-73
2021/04/14 09:29:51;;;;;;;1.55;1.23;;;8.10;99.90;;;;;;4897235;29;20211;-73
2021/04/14 09:32:19;;;;;;;2.00;1.90;;;8.20;99.90;;;;;;4896635;29;20227;-73
2021/04/14 09:34:47;;;;;;;13.50;2.95;;;8.20;99.90;;;;;;4896605;29;20242;-70
2021/04/14 09:37:31;;;;;;;4.22;2.30;;;8.20;99.90;;;;;;4896729;29;20246;-70
2021/04/14 09:40:01;;;;;;;1.63;1.48;;;8.30;99.90;;;;;;4896005;29;20298;-71
2021/04/14 09:42:35;;;;;;;4.05;1.85;;;8.50;99.90;;;;;;4895672;29;20253;-70
2021/04/14 09:45:31;;;;;;;2.50;1.70;;;8.80;99.90;;;;;;4896113;29;20204;-70
2021/04/14 09:48:00;;;;;;;2.92;2.10;;;8.80;99.90;;;;;;4874217;29;20219;-69
2021/04/14 09:50:39;;;;;;;2.75;1.50;;;8.70;99.90;;;;;;4882623;29;20576;-70
2021/04/14 09:53:18;;;;;;;4.43;2.00;;;8.50;99.90;;;;;;4893118;29;20739;-69
2021/04/14 09:55:47;;;;;;;3.55;2.15;;;8.50;99.90;;;;;;4899040;29;20271;-69
2021/04/14 09:58:28;;;;;;;3.67;2.17;;;8.50;99.90;;;;;;4899623;29;20763;-70
2021/04/14 10:00:57;;;;;;;2.28;2.10;;;8.60;99.90;;;;;;4900356;29;20231;-69
2021/04/14 10:03:29;;;;;;;4.22;2.20;;;8.50;99.90;;;;;;4900355;29;20668;-68
2021/04/14 10:05:56;;;;;;;4.40;2.80;;;8.40;99.90;;;;;;4900919;29;20259;-70
2021/04/14 10:08:24;;;;;;;2.75;2.10;;;8.40;99.90;;;;;;4900979;29;20203;-71
2021/04/14 10:10:51;;;;;;;3.13;1.85;;;8.40;99.90;;;;;;4900287;29;20231;-70
2021/04/14 10:13:19;;;;;;;3.05;1.85;;;8.50;99.90;;;;;;4897315;29;20691;-72
2021/04/14 10:15:48;;;;;;;2.80;2.10;;;8.50;99.90;;;;;;4888622;29;20799;-71
2021/04/14 10:18:20;;;;;;;15.35;2.45;;;8.60;99.90;;;;;;4904127;29;20215;-72
2021/04/14 10:20:47;;;;;;;2.30;2.08;;;8.70;99.90;;;;;;4905444;29;20310;-71
2021/04/14 10:23:18;;;;;;;1.70;1.70;;;8.70;99.90;;;;;;4898252;29;20680;-70
2021/04/14 10:25:45;;;;;;;1.58;1.58;;;8.60;99.90;;;;;;4903058;29;20279;-72
2021/04/14 10:28:20;;;;;;;3.22;2.22;;;8.50;99.90;;;;;;4905104;29;20672;-71
2021/04/14 10:30:50;;;;;;;2.60;2.40;;;8.50;99.90;;;;;;4899161;29;20253;-71
2021/04/14 10:33:18;;;;;;;1.65;1.50;;;8.50;99.90;;;;;;4897174;29;20330;-72
2021/04/14 10:35:45;;;;;;;2.17;2.03;;;8.70;99.90;;;;;;4900526;29;20378;-71
2021/04/14 10:38:13;;;;;;;2.90;0.98;;;8.70;99.90;;;;;;4902932;29;20211;-74
2021/04/14 10:40:43;;;;;;;2.67;1.52;;;8.70;99.90;;;;;;4901950;29;20237;-73
2021/04/14 10:43:13;;;;;;;2.80;2.60;;;8.80;99.90;;;;;;4900467;29;20250;-75
2021/04/14 10:45:55;;;;;;;1.38;1.20;;;9.10;99.90;;;;;;4902064;29;20657;-74
2021/04/14 10:48:22;;;;;;;2.83;1.40;;;9.30;99.90;;;;;;4911722;29;20207;-72
2021/04/14 10:50:49;;;;;;;1.33;1.27;;;9.40;99.90;;;;;;4903002;29;20239;-70
2021/04/14 10:53:16;;;;;;;2.17;1.95;;;9.30;99.90;;;;;;4898187;29;20238;-70
2021/04/14 10:55:45;;;;;;;1.50;1.40;;;9.30;99.90;;;;;;4898696;29;20637;-70
2021/04/14 10:58:20;;;;;;;2.38;1.55;;;9.30;99.90;;;;;;4899443;29;20211;-70
2021/04/14 11:00:48;;;;;;;2.28;1.88;;;9.20;99.90;;;;;;4884978;29;20309;-70
2021/04/14 11:03:19;;;;;;;1.95;1.80;;;9.10;99.90;;;;;;4894100;29;20219;-71
2021/04/14 11:05:48;;;;;;;1.73;1.63;;;8.90;99.90;;;;;;4895498;29;20655;-70
2021/04/14 11:08:16;;;;;;;1.85;1.75;;;8.80;99.90;;;;;;4898343;29;20207;-70
2021/04/14 11:10:43;;;;;;;1.02;1.02;;;8.70;99.90;;;;;;4898703;29;20235;-70
2021/04/14 11:13:15;;;;;;;2.15;1.30;;;8.60;99.90;;;;;;4897715;29;20231;-70
2021/04/14 11:15:49;;;;;;;1.58;1.48;;;8.60;99.90;;;;;;4898552;29;20207;-71
2021/04/14 11:18:17;;;;;;;2.05;1.23;;;8.60;99.90;;;;;;4899071;29;20216;-72
2021/04/14 11:20:48;;;;;;;5.07;3.70;;;8.60;99.90;;;;;;4884080;29;20590;-71
2021/04/14 11:23:21;;;;;;;2.10;1.58;;;8.70;99.90;;;;;;4898998;29;20571;-71
2021/04/14 11:25:48;;;;;;;2.25;1.70;;;8.80;99.90;;;;;;4899389;29;20676;-71
2021/04/14 11:28:17;;;;;;;3.17;2.72;;;9.00;99.90;;;;;;4897162;29;20663;-71
2021/04/14 11:30:49;;;;;;;3.30;1.35;;;9.10;99.90;;;;;;4898792;29;20227;-71
2021/04/14 11:33:17;;;;;;;0.90;0.90;;;9.30;99.90;;;;;;4898498;29;20223;-71
2021/04/14 11:35:45;;;;;;;3.70;1.90;;;9.30;99.90;;;;;;4898456;29;20206;-71
2021/04/14 11:38:27;;;;;;;2.58;1.50;;;9.30;99.90;;;;;;4898303;29;20211;-71
2021/04/14 11:40:54;;;;;;;1.95;1.10;;;9.30;99.90;;;;;;4891759;29;20235;-70
2021/04/14 11:43:29;;;;;;;1.08;1.08;;;9.40;99.90;;;;;;4883219;29;20210;-70
2021/04/14 11:45:58;;;;;;;1.30;0.88;;;9.30;99.90;;;;;;4885682;29;20267;-70
2021/04/14 11:48:37;;;;;;;1.58;0.90;;;9.30;99.90;;;;;;4881869;29;20215;-71
2021/04/14 11:51:16;;;;;;;0.88;0.88;;;9.40;97.70;;;;;;4897244;29;20314;-72
2021/04/14 11:53:50;;;;;;;1.30;1.20;;;9.60;96.00;;;;;;4897292;29;20551;-70
2021/04/14 11:56:34;;;;;;;1.20;1.15;;;9.80;96.30;;;;;;4896937;29;20219;-70
2021/04/14 11:59:00;;;;;;;1.38;0.77;;;10.10;95.40;;;;;;4896481;29;20527;-70
2021/04/14 12:01:29;;;;;;;1.10;1.10;;;10.40;93.50;;;;;;4885054;29;20239;-70
2021/04/14 12:03:57;;;;;;;1.15;0.73;;;10.40;93.00;;;;;;4884977;29;20555;-70
2021/04/14 12:06:23;;;;;;;1.25;1.25;;;10.40;93.50;;;;;;4895652;29;20215;-70
2021/04/14 12:08:49;;;;;;;1.10;1.10;;;10.20;93.90;;;;;;4897447;29;20226;-69
2021/04/14 12:11:20;;;;;;;1.73;1.55;;;10.00;94.10;;;;;;4897169;29;20719;-70
2021/04/14 12:13:47;;;;;;;1.30;1.20;;;10.00;94.70;;;;;;4897087;29;20230;-69
2021/04/14 12:16:13;;;;;;;1.63;1.52;;;10.00;93.90;;;;;;4897208;29;20211;-73
2021/04/14 12:18:39;;;;;;;1.30;1.30;;;10.00;93.50;;;;;;4897847;29;20211;-70
2021/04/14 12:21:06;;;;;;;1.52;1.42;;;10.00;94.80;;;;;;4896963;29;20241;-71
2021/04/14 12:23:33;;;;;;;8.52;3.72;;;10.10;95.30;;;;;;4896683;29;20215;-70
2021/04/14 12:25:59;;;;;;;1.33;1.17;;;10.20;94.80;;;;;;4894712;29;20208;-71
2021/04/14 12:28:25;;;;;;;1.70;1.60;;;10.30;93.80;;;;;;4895198;29;20215;-71
2021/04/14 12:30:52;;;;;;;1.23;1.10;;;10.40;93.90;;;;;;4893967;29;20249;-71
2021/04/14 12:33:18;;;;;;;1.98;1.30;;;10.40;92.30;;;;;;4895544;29;20287;-70
2021/04/14 12:35:44;;;;;;;1.10;1.10;;;10.30;90.60;;;;;;4895426;29;20210;-70
2021/04/14 12:38:12;;;;;;;1.00;1.00;;;10.30;88.80;;;;;;4895103;29;20203;-70
2021/04/14 12:40:41;;;;;;;0.95;0.88;;;10.30;90.30;;;;;;4896124;29;20224;-69
2021/04/14 12:43:08;;;;;;;1.25;1.25;;;10.30;90.70;;;;;;4895563;29;20215;-71
2021/04/14 12:45:40;;;;;;;2.05;1.15;;;10.20;90.90;;;;;;4896516;29;20211;-71
2021/04/14 12:48:10;;;;;;;1.90;1.23;;;10.20;92.00;;;;;;4896931;29;20577;-71
2021/04/14 12:50:36;;;;;;;3.70;1.35;;;10.10;91.20;;;;;;4897079;29;20231;-75
2021/04/14 12:53:06;;;;;;;1.08;0.93;;;10.00;91.50;;;;;;4896942;29;20270;-75
2021/04/14 12:55:41;;;;;;;1.63;1.27;;;9.90;92.20;;;;;;4897001;29;20223;-74
2021/04/14 12:58:10;;;;;;;2.33;1.30;;;9.90;92.00;;;;;;4896764;29;20223;-74
2021/04/14 13:00:36;;;;;;;1.35;1.25;;;9.90;93.10;;;;;;4896774;29;20340;-74
2021/04/14 13:03:07;;;;;;;3.13;1.20;;;10.10;92.50;;;;;;4893922;29;20199;-74
2021/04/14 13:05:37;;;;;;;1.20;1.20;;;10.10;92.20;;;;;;4886721;29;20207;-74
2021/04/14 13:08:07;;;;;;;1.50;1.40;;;10.00;91.00;;;;;;4897141;29;20223;-73
2021/04/14 13:10:42;;;;;;;2.20;0.85;;;10.10;91.50;;;;;;4881682;29;20689;-74
2021/04/14 13:13:09;;;;;;;1.38;1.38;;;10.10;90.70;;;;;;4890973;29;20250;-74
2021/04/14 13:15:40;;;;;;;2.60;1.92;;;10.10;91.40;;;;;;4897857;29;20314;-74
2021/04/14 13:18:07;;;;;;;0.95;0.95;;;10.20;92.00;;;;;;4897479;29;20262;-75
2021/04/14 13:20:33;;;;;;;1.10;1.00;;;10.20;91.10;;;;;;4897399;29;20310;-74
2021/04/14 13:23:09;;;;;;;4.25;1.45;;;10.30;90.10;;;;;;4897001;29;20203;-75
2021/04/14 13:25:44;;;;;;;1.20;1.10;;;10.40;90.00;;;;;;4895283;29;20207;-74
2021/04/14 13:28:17;;;;;;;1.10;1.10;;;10.50;90.10;;;;;;4878754;29;20215;-75
2021/04/14 13:30:51;;;;;;;1.02;1.02;;;10.60;87.10;;;;;;4881916;29;20232;-72
2021/04/14 13:33:24;;;;;;;1.05;1.00;;;10.70;88.50;;;;;;4895487;29;20230;-71
2021/04/14 13:35:57;;;;;;;1.95;1.40;;;10.80;86.60;;;;;;4900956;29;20670;-72
2021/04/14 13:38:25;;;;;;;1.65;1.60;;;10.80;85.10;;;;;;4901123;29;20298;-72
2021/04/14 13:40:58;;;;;;;1.33;1.33;;;10.80;87.30;;;;;;4900858;29;20751;-73
2021/04/14 13:43:31;;;;;;;2.95;2.45;;;10.90;88.10;;;;;;4898478;29;20302;-73
2021/04/14 13:46:02;;;;;;;3.45;1.80;;;11.10;89.00;;;;;;4883972;29;20246;-71
2021/04/14 13:48:34;;;;;;;1.70;1.70;;;11.20;89.30;;;;;;4884549;29;20697;-73
2021/04/14 13:51:06;;;;;;;1.42;1.33;;;11.50;90.40;;;;;;4885007;29;20231;-72
2021/04/14 13:53:35;;;;;;;1.50;1.50;;;11.60;88.80;;;;;;4897334;29;20309;-71
2021/04/14 13:56:06;;;;;;;2.53;1.15;;;11.40;89.30;;;;;;4900121;29;20218;-71
2021/04/14 13:58:44;;;;;;;1.63;1.52;;;11.40;87.50;;;;;;4900440;29;20250;-71
2021/04/14 14:01:15;;;;;;;1.00;1.00;;;11.30;86.10;;;;;;4900202;29;20243;-71
2021/04/14 14:03:41;;;;;;;1.27;1.17;;;11.10;87.60;;;;;;4899113;29;20287;-71
2021/04/14 14:06:15;;;;;;;3.63;1.20;;;11.10;89.20;;;;;;4900290;29;20215;-72
2021/04/14 14:08:46;;;;;;;0.85;0.85;;;11.10;87.60;;;;;;4900068;29;20246;-71
2021/04/14 14:11:21;;;;;;;0.88;0.88;;;10.90;87.90;;;;;;4900126;29;20342;-71
2021/04/14 14:13:49;;;;;;;1.30;1.20;;;10.80;85.70;;;;;;4899879;29;20342;-71
2021/04/14 14:16:21;;;;;;;1.10;1.00;;;10.70;85.20;;;;;;4900509;29;20735;-73
2021/04/14 14:18:59;;;;;;;1.00;0.60;;;10.60;85.20;;;;;;4900539;29;20234;-73
2021/04/14 14:21:25;;;;;;;1.40;1.05;;;10.60;84.50;;;;;;4901236;29;20234;-73
2021/04/14 14:23:52;;;;;;;0.82;0.80;;;10.40;84.00;;;;;;4900120;29;20306;-72
2021/04/14 14:26:24;;;;;;;2.40;1.15;;;10.40;84.30;;;;;;4900619;29;20757;-73
2021/04/14 14:28:50;;;;;;;1.10;1.10;;;10.40;84.30;;;;;;4900675;29;20631;-73
2021/04/14 14:31:17;;;;;;;2.15;1.70;;;10.20;84.40;;;;;;4900683;29;20290;-73
2021/04/14 14:33:44;;;;;;;1.50;1.00;;;10.20;86.20;;;;;;4900073;29;20223;-72
2021/04/14 14:36:16;;;;;;;1.90;1.10;;;10.30;89.10;;;;;;4901066;29;20215;-72
2021/04/14 14:38:48;;;;;;;0.80;0.80;;;10.30;90.50;;;;;;4900590;29;20634;-72
2021/04/14 14:41:18;;;;;;;1.75;1.65;;;10.10;90.70;;;;;;4899273;29;20318;-72
2021/04/14 14:43:49;;;;;;;0.95;0.95;;;10.10;91.60;;;;;;4900269;29;20203;-72
2021/04/14 14:46:21;;;;;;;2.00;1.10;;;10.10;91.90;;;;;;4900152;29;20218;-73
2021/04/14 14:48:51;;;;;;;1.27;0.85;;;10.20;91.70;;;;;;4900022;29;20227;-69
2021/04/14 14:51:21;;;;;;;2.28;0.90;;;10.20;91.90;;;;;;4893987;29;20247;-68
2021/04/14 14:53:55;;;;;;;1.00;0.88;;;10.10;91.30;;;;;;4899354;29;20302;-69
2021/04/14 14:56:26;;;;;;;1.10;0.90;;;10.10;91.60;;;;;;4899338;29;20212;-69
2021/04/14 14:58:53;;;;;;;1.08;1.05;;;10.10;91.40;;;;;;4900587;29;20206;-69
2021/04/14 15:01:21;;;;;;;1.92;1.85;;;10.10;91.80;;;;;;4900110;29;20239;-69
2021/04/14 15:03:48;;;;;;;1.52;1.27;;;10.10;92.10;;;;;;4903666;29;20369;-74
2021/04/14 15:06:19;;;;;;;0.98;0.90;;;10.10;91.40;;;;;;4904932;29;20222;-73
2021/04/14 15:08:47;;;;;;;1.92;1.67;;;10.00;91.10;;;;;;4890637;29;20739;-72
2021/04/14 15:11:13;;;;;;;1.00;0.90;;;10.00;91.40;;;;;;4898458;29;20309;-72
2021/04/14 15:13:42;;;;;;;1.42;1.30;;;9.90;91.70;;;;;;4907636;29;20229;-73
2021/04/14 15:16:09;;;;;;;1.45;1.45;;;9.80;90.90;;;;;;4905119;29;20247;-73
2021/04/14 15:18:36;;;;;;;1.52;1.50;;;9.80;90.90;;;;;;4897182;29;20258;-73
2021/04/14 15:21:04;;;;;;;0.88;0.80;;;9.80;91.50;;;;;;4899760;29;20226;-73
2021/04/14 15:23:30;;;;;;;1.50;1.00;;;9.90;91.00;;;;;;4893060;29;20215;-73
2021/04/14 15:26:02;;;;;;;1.33;1.05;;;9.90;91.30;;;;;;4898516;29;20211;-73
2021/04/14 15:28:28;;;;;;;1.55;0.80;;;9.80;90.80;;;;;;4903431;29;20613;-73
2021/04/14 15:30:54;;;;;;;1.45;1.30;;;9.70;92.50;;;;;;4900270;29;20230;-73
2021/04/14 15:33:21;;;;;;;2.97;1.50;;;9.60;94.20;;;;;;4900361;29;20219;-73
2021/04/14 15:35:48;;;;;;;1.48;1.23;;;9.40;95.10;;;;;;4899751;29;20226;-73
2021/04/14 15:38:14;;;;;;;3.05;1.05;;;9.30;95.50;;;;;;4899083;29;20218;-73
2021/04/14 15:40:40;;;;;;;0.93;0.93;;;9.20;95.80;;;;;;4892080;29;20223;-73
2021/04/14 15:43:07;;;;;;;1.35;1.25;;;9.10;95.80;;;;;;4879755;29;20208;-73
2021/04/14 15:45:35;;;;;;;1.60;1.00;;;9.00;96.20;;;;;;4893982;29;20522;-73
2021/04/14 15:48:03;;;;;;;1.38;1.25;;;8.90;96.20;;;;;;4898145;29;20207;-73
2021/04/14 15:50:32;;;;;;;3.65;1.45;;;8.80;96.90;;;;;;4899427;29;20223;-73
2021/04/14 15:52:59;;;;;;;1.23;1.23;;;8.80;97.20;;;;;;4897075;29;20227;-72
2021/04/14 15:55:28;;;;;;;4.35;1.55;;;8.80;97.80;;;;;;4897808;29;20215;-73
2021/04/14 15:57:56;;;;;;;2.72;2.55;;;8.80;98.20;;;;;;4897215;29;20259;-73
2021/04/14 16:00:26;;;;;;;6.10;4.18;;;8.80;98.50;;;;;;4890102;29;20354;-72
2021/04/14 16:02:52;;;;;;;3.85;3.55;;;8.80;98.40;;;;;;4897667;29;20214;-71
2021/04/14 16:05:21;;;;;;;4.68;3.00;;;8.70;97.90;;;;;;4896142;29;20216;-72
2021/04/14 16:07:49;;;;;;;3.60;2.20;;;8.70;98.30;;;;;;4894009;29;20242;-72
2021/04/14 16:10:17;;;;;;;1.85;1.75;;;8.80;97.50;;;;;;4897969;29;20199;-72
2021/04/14 16:12:45;;;;;;;2.20;2.10;;;8.80;97.20;;;;;;4896771;29;20222;-72
2021/04/14 16:15:13;;;;;;;4.30;2.35;;;8.80;97.40;;;;;;4896692;29;20636;-72
2021/04/14 16:17:39;;;;;;;4.75;3.08;;;8.80;99.90;;;;;;4896598;29;20218;-72
2021/04/14 16:20:07;;;;;;;3.65;2.50;;;8.80;99.90;;;;;;4896782;29;20203;-72
2021/04/14 16:22:34;;;;;;;3.72;2.80;;;8.80;99.90;;;;;;4897696;29;20528;-72
2021/04/14 16:25:01;;;;;;;2.85;2.60;;;8.80;99.90;;;;;;4896536;29;20207;-72
2021/04/14 16:27:27;;;;;;;1.65;1.65;;;8.90;99.90;;;;;;4897399;29;20218;-73
2021/04/14 16:29:56;;;;;;;3.78;2.25;;;8.90;99.90;;;;;;4900840;29;20211;-72
2021/04/14 16:32:23;;;;;;;1.77;1.70;;;8.90;99.90;;;;;;4897384;29;20231;-72
2021/04/14 16:34:50;;;;;;;3.25;1.60;;;8.90;99.90;;;;;;4897416;29;20235;-72
2021/04/14 16:37:16;;;;;;;1.80;1.70;;;8.90;99.90;;;;;;4897169;29;20218;-73
2021/04/14 16:39:42;;;;;;;2.58;1.20;;;8.80;99.90;;;;;;4898032;29;20660;-74
2021/04/14 16:42:10;;;;;;;1.25;1.20;;;8.70;99.90;;;;;;4896399;29;20231;-72
2021/04/14 16:44:36;;;;;;;1.83;1.73;;;8.60;99.90;;;;;;4897629;29;20212;-74
2021/04/14 16:47:03;;;;;;;1.85;1.45;;;8.60;99.90;;;;;;4894655;29;20264;-73
2021/04/14 16:49:29;;;;;;;2.15;1.95;;;8.50;99.90;;;;;;4897358;29;20223;-75
2021/04/14 16:51:55;;;;;;;1.33;1.33;;;8.50;99.90;;;;;;4897186;29;20688;-73
2021/04/14 16:54:21;;;;;;;1.95;1.95;;;8.50;99.90;;;;;;4897028;29;20235;-74
2021/04/14 16:56:48;;;;;;;1.83;1.73;;;8.40;99.90;;;;;;4896764;29;20208;-73
2021/04/14 16:59:15;;;;;;;1.85;1.85;;;8.40;99.90;;;;;;4897219;29;20268;-73
2021/04/14 17:01:41;;;;;;;2.15;1.70;;;8.40;99.90;;;;;;4896857;29;20239;-74
2021/04/14 17:04:08;;;;;;;2.10;1.90;;;8.30;99.90;;;;;;4897151;29;20238;-74
2021/04/14 17:06:35;;;;;;;1.85;1.75;;;8.30;99.90;;;;;;4900672;29;20279;-73
2021/04/14 17:09:04;;;;;;;1.90;1.80;;;8.30;99.90;;;;;;4900956;29;20230;-75